createdAt,value
2017-11-11T00:02:16.791Z,4.23
2017-11-11T00:04:44.629Z,4.10
2017-11-11T00:07:12.834Z,4.37
2017-11-11T00:09:40.265Z,4.07
2017-11-11T00:12:08.461Z,4.63
2017-11-11T00:14:36.445Z,4.47
2017-11-11T00:17:04.085Z,4.07
2017-11-11T00:19:31.506Z,4.53
2017-11-11T00:21:58.926Z,4.10
2017-11-11T00:24:26.355Z,4.80
2017-11-11T00:26:53.803Z,5.10
2017-11-11T00:29:21.978Z,4.27
2017-11-11T00:31:49.420Z,3.97
2017-11-11T00:34:16.834Z,4.87
2017-11-11T00:36:44.254Z,4.07
2017-11-11T00:39:12.736Z,4.70
2017-11-11T00:41:40.174Z,4.60
2017-11-11T00:44:08.361Z,5.30
2017-11-11T00:46:35.789Z,4.73
2017-11-11T00:49:03.207Z,4.90
2017-11-11T00:51:30.637Z,4.77
2017-11-11T00:53:58.073Z,5.63
2017-11-11T00:56:26.963Z,4.00
2017-11-11T00:58:55.150Z,4.33
2017-11-11T01:01:22.589Z,4.23
2017-11-11T01:03:50.734Z,4.73
2017-11-11T01:06:18.164Z,4.93
2017-11-11T01:08:45.582Z,4.40
2017-11-11T01:11:14.338Z,4.30
2017-11-11T01:13:41.770Z,4.83
2017-11-11T01:16:09.199Z,4.90
2017-11-11T01:18:36.624Z,5.23
2017-11-11T01:21:04.180Z,4.80
2017-11-11T01:23:31.597Z,5.23
2017-11-11T01:25:59.021Z,5.27
2017-11-11T01:28:26.503Z,5.07
2017-11-11T01:30:53.912Z,5.33
2017-11-11T01:33:22.101Z,5.13
2017-11-11T01:35:50.704Z,6.50
2017-11-11T01:38:18.129Z,5.37
2017-11-11T01:40:45.556Z,5.93
2017-11-11T01:43:12.968Z,5.43
2017-11-11T01:45:40.397Z,7.27
2017-11-11T01:48:07.813Z,5.47
2017-11-11T01:50:35.237Z,5.70
2017-11-11T01:53:02.657Z,5.80
2017-11-11T01:55:30.082Z,5.53
2017-11-11T01:57:58.338Z,5.30
2017-11-11T02:00:25.781Z,5.33
2017-11-11T02:02:53.948Z,5.33
2017-11-11T02:05:22.147Z,4.87
2017-11-11T02:07:49.983Z,4.83
2017-11-11T02:10:18.197Z,5.20
2017-11-11T02:12:46.288Z,5.37
2017-11-11T02:15:13.706Z,5.13
2017-11-11T02:17:41.124Z,5.27
2017-11-11T02:20:09.064Z,5.07
2017-11-11T02:22:36.752Z,5.53
2017-11-11T02:25:04.366Z,5.67
2017-11-11T02:27:31.790Z,5.20
2017-11-11T02:29:59.981Z,4.83
2017-11-11T02:32:27.415Z,5.47
2017-11-11T02:34:55.393Z,5.50
2017-11-11T02:37:23.586Z,5.87
2017-11-11T02:39:51.013Z,5.37
2017-11-11T02:42:19.210Z,5.43
2017-11-11T02:44:47.062Z,5.73
2017-11-11T02:47:15.578Z,5.73
2017-11-11T02:49:42.990Z,5.50
2017-11-11T02:54:45.917Z,4.97
2017-11-11T02:57:13.967Z,5.00
2017-11-11T02:59:41.381Z,4.37
2017-11-11T03:02:09.573Z,5.40
2017-11-11T03:04:36.993Z,4.83
2017-11-11T03:07:05.042Z,4.43
2017-11-11T03:09:32.460Z,4.70
2017-11-11T03:11:59.883Z,5.30
2017-11-11T03:14:27.311Z,5.20
2017-11-11T03:16:54.754Z,5.13
2017-11-11T03:19:23.334Z,5.47
2017-11-11T03:21:50.753Z,5.07
2017-11-11T03:24:18.168Z,4.27
2017-11-11T03:26:45.618Z,4.97
2017-11-11T03:29:13.408Z,5.10
2017-11-11T03:31:40.848Z,5.03
2017-11-11T03:34:08.273Z,5.03
2017-11-11T03:39:09.639Z,4.70
2017-11-11T03:41:37.070Z,5.47
2017-11-11T03:44:05.249Z,5.43
2017-11-11T03:46:33.291Z,5.40
2017-11-11T03:49:00.727Z,4.87
2017-11-11T03:51:28.909Z,4.50
2017-11-11T03:53:58.284Z,5.00
2017-11-11T03:56:25.705Z,4.13
2017-11-11T03:58:53.130Z,4.10
2017-11-11T04:01:35.334Z,4.73
2017-11-11T04:04:03.362Z,4.83
2017-11-11T04:06:30.794Z,4.53
2017-11-11T04:08:58.219Z,5.10
2017-11-11T04:11:25.646Z,4.63
2017-11-11T04:13:53.829Z,5.00
2017-11-11T04:16:21.546Z,5.10
2017-11-11T04:18:48.954Z,5.20
2017-11-11T04:21:16.386Z,5.70
2017-11-11T04:23:43.812Z,4.97
2017-11-11T04:26:12.015Z,5.43
2017-11-11T04:28:39.863Z,5.63
2017-11-11T04:31:07.269Z,5.23
2017-11-11T04:33:34.697Z,5.30
2017-11-11T04:36:02.895Z,6.87
2017-11-11T04:38:30.323Z,5.90
2017-11-11T04:40:57.754Z,5.47
2017-11-11T04:43:25.174Z,5.80
2017-11-11T04:45:52.601Z,6.67
2017-11-11T04:48:20.798Z,6.03
2017-11-11T04:50:48.221Z,6.07
2017-11-11T04:53:15.654Z,6.87
2017-11-11T04:55:43.082Z,6.60
2017-11-11T04:58:10.913Z,7.30
2017-11-11T05:00:39.110Z,6.53
2017-11-11T05:03:07.092Z,6.57
2017-11-11T05:05:34.519Z,7.30
2017-11-11T05:08:02.724Z,6.67
2017-11-11T05:10:30.943Z,6.57
2017-11-11T05:12:58.373Z,6.63
2017-11-11T05:15:25.797Z,5.90
2017-11-11T05:17:53.892Z,7.17
2017-11-11T05:20:21.317Z,7.53
2017-11-11T05:22:49.532Z,7.00
2017-11-11T05:25:16.953Z,6.60
2017-11-11T05:27:44.797Z,6.73
2017-11-11T05:30:12.981Z,7.13
2017-11-11T05:32:41.179Z,6.77
2017-11-11T05:35:08.592Z,7.37
2017-11-11T05:37:36.035Z,6.97
2017-11-11T05:40:03.901Z,6.57
2017-11-11T05:42:31.341Z,6.57
2017-11-11T05:44:58.768Z,7.40
2017-11-11T05:47:26.199Z,6.90
2017-11-11T05:49:54.381Z,6.03
2017-11-11T05:52:22.599Z,7.00
2017-11-11T05:54:50.031Z,5.93
2017-11-11T05:57:17.761Z,6.70
2017-11-11T05:59:45.173Z,7.10
2017-11-11T06:02:13.229Z,6.83
2017-11-11T06:04:40.641Z,6.90
2017-11-11T06:07:08.066Z,7.17
2017-11-11T06:09:35.498Z,8.40
2017-11-11T06:12:02.919Z,7.27
2017-11-11T06:14:30.346Z,8.20
2017-11-11T06:16:57.792Z,7.30
2017-11-11T06:19:25.231Z,7.23
2017-11-11T06:21:52.678Z,7.03
2017-11-11T06:24:20.103Z,7.53
2017-11-11T06:26:48.284Z,7.80
2017-11-11T06:29:16.497Z,7.30
2017-11-11T06:31:44.946Z,8.17
2017-11-11T06:34:13.562Z,8.47
2017-11-11T06:36:41.002Z,9.87
2017-11-11T06:39:09.188Z,8.13
2017-11-11T06:41:36.604Z,7.57
2017-11-11T06:44:04.802Z,7.40
2017-11-11T06:46:32.221Z,6.80
2017-11-11T06:48:59.999Z,6.70
2017-11-11T06:51:27.407Z,6.70
2017-11-11T06:53:54.832Z,7.30
2017-11-11T06:56:22.251Z,6.73
2017-11-11T06:58:49.678Z,5.93
2017-11-11T07:01:17.101Z,5.77
2017-11-11T07:03:44.552Z,5.77
2017-11-11T07:06:12.742Z,5.60
2017-11-11T07:08:40.198Z,5.90
2017-11-11T07:11:07.626Z,5.47
2017-11-11T07:13:35.037Z,6.63
2017-11-11T07:16:02.476Z,6.50
2017-11-11T07:18:29.905Z,5.93
2017-11-11T07:20:58.096Z,6.57
2017-11-11T07:23:25.517Z,6.77
2017-11-11T07:25:52.945Z,7.40
2017-11-11T07:28:20.379Z,8.30
2017-11-11T07:30:50.375Z,8.03
2017-11-11T07:33:18.552Z,9.17
2017-11-11T07:35:45.985Z,8.47
2017-11-11T07:38:13.410Z,8.03
2017-11-11T07:40:40.842Z,8.20
2017-11-11T07:43:08.258Z,8.57
2017-11-11T07:45:36.914Z,8.10
2017-11-11T07:48:04.736Z,7.50
2017-11-11T07:50:32.178Z,8.20
2017-11-11T07:53:00.374Z,8.37
2017-11-11T07:55:27.809Z,9.13
2017-11-11T07:57:55.985Z,6.80
2017-11-11T08:00:23.412Z,6.20
2017-11-11T08:02:50.842Z,6.17
2017-11-11T08:05:18.308Z,6.17
2017-11-11T08:07:45.725Z,6.73
2017-11-11T08:10:13.150Z,6.30
2017-11-11T08:12:42.082Z,5.93
2017-11-11T08:15:09.517Z,5.93
2017-11-11T08:17:38.694Z,6.37
2017-11-11T08:20:06.110Z,5.83
2017-11-11T08:22:34.310Z,6.00
2017-11-11T08:25:02.698Z,5.93
2017-11-11T08:27:30.137Z,4.97
2017-11-11T08:29:57.569Z,6.50
2017-11-11T08:32:24.993Z,6.30
2017-11-11T08:34:52.425Z,5.40
2017-11-11T08:37:19.859Z,6.27
2017-11-11T08:39:47.289Z,5.83
2017-11-11T08:42:14.732Z,6.47
2017-11-11T08:44:42.172Z,6.37
2017-11-11T08:47:10.366Z,6.67
2017-11-11T08:52:11.421Z,6.93
2017-11-11T08:54:38.843Z,7.53
2017-11-11T08:57:06.277Z,8.63
2017-11-11T08:59:33.711Z,7.20
2017-11-11T09:02:01.138Z,8.67
2017-11-11T09:04:28.552Z,7.80
2017-11-11T09:06:55.977Z,7.03
2017-11-11T09:09:23.407Z,7.97
2017-11-11T09:11:51.605Z,8.10
2017-11-11T09:14:20.830Z,7.37
2017-11-11T09:16:48.238Z,7.90
2017-11-11T09:19:15.660Z,7.50
2017-11-11T09:21:43.095Z,7.40
2017-11-11T09:24:10.649Z,7.30
2017-11-11T09:26:38.328Z,7.23
2017-11-11T09:29:05.756Z,7.60
2017-11-11T09:31:33.168Z,7.63
2017-11-11T09:34:01.778Z,7.30
2017-11-11T09:36:30.104Z,6.27
2017-11-11T09:38:58.891Z,7.27
2017-11-11T09:41:26.314Z,7.73
2017-11-11T09:43:53.832Z,7.13
2017-11-11T09:46:22.025Z,7.90
2017-11-11T09:48:49.455Z,8.17
2017-11-11T09:51:17.291Z,8.00
2017-11-11T09:53:44.726Z,8.23
2017-11-11T09:56:12.598Z,8.10
2017-11-11T09:58:40.026Z,9.07
2017-11-11T10:01:08.018Z,9.13
2017-11-11T10:03:35.463Z,10.07
2017-11-11T10:06:02.883Z,9.60
2017-11-11T10:08:30.314Z,9.23
2017-11-11T10:10:57.737Z,9.57
2017-11-11T10:13:25.167Z,9.47
2017-11-11T10:15:53.357Z,9.80
2017-11-11T10:18:20.784Z,10.30
2017-11-11T10:20:48.983Z,9.93
2017-11-11T10:23:16.410Z,9.13
2017-11-11T10:25:44.575Z,9.83
2017-11-11T10:28:12.275Z,9.93
2017-11-11T10:30:40.983Z,9.70
2017-11-11T10:33:08.416Z,9.50
2017-11-11T10:35:35.843Z,8.97
2017-11-11T10:38:03.278Z,10.27
2017-11-11T10:40:31.531Z,9.80
2017-11-11T10:42:58.950Z,9.60
2017-11-11T10:45:27.569Z,9.33
2017-11-11T10:47:55.012Z,9.80
2017-11-11T10:50:23.040Z,8.73
2017-11-11T10:52:50.861Z,7.80
2017-11-11T10:55:18.698Z,6.90
2017-11-11T10:57:46.927Z,6.80
2017-11-11T11:00:14.338Z,5.43
2017-11-11T11:02:41.761Z,4.30
2017-11-11T11:05:09.186Z,4.13
2017-11-11T11:07:36.614Z,3.40
2017-11-11T11:10:04.158Z,2.53
2017-11-11T11:12:32.370Z,2.47
2017-11-11T11:15:03.104Z,1.70
2017-11-11T11:17:30.570Z,1.83
2017-11-11T11:19:57.991Z,3.30
2017-11-11T11:22:25.430Z,4.27
2017-11-11T11:24:53.935Z,4.13
2017-11-11T11:27:22.109Z,4.37
2017-11-11T11:29:49.529Z,4.80
2017-11-11T11:32:16.964Z,4.60
2017-11-11T11:34:44.486Z,4.37
2017-11-11T11:37:11.905Z,5.40
2017-11-11T11:39:39.361Z,5.20
2017-11-11T11:42:06.772Z,5.13
2017-11-11T11:44:34.190Z,6.07
2017-11-11T11:47:02.953Z,5.73
2017-11-11T11:49:30.382Z,5.73
2017-11-11T11:51:57.805Z,6.20
2017-11-11T11:54:25.233Z,5.67
2017-11-11T11:56:52.650Z,6.57
2017-11-11T11:59:20.157Z,6.60
2017-11-11T12:01:48.357Z,7.07
2017-11-11T12:04:15.778Z,7.20
2017-11-11T12:06:43.210Z,6.87
2017-11-11T12:09:10.637Z,6.53
2017-11-11T12:11:38.480Z,6.00
2017-11-11T12:14:07.126Z,6.80
2017-11-11T12:16:34.961Z,6.07
2017-11-11T12:19:02.394Z,6.63
2017-11-11T12:21:30.232Z,6.57
2017-11-11T12:23:58.425Z,6.87
2017-11-11T12:26:26.282Z,6.27
2017-11-11T12:28:54.481Z,6.10
2017-11-11T12:31:22.537Z,5.57
2017-11-11T12:33:51.254Z,5.03
2017-11-11T12:36:19.223Z,4.87
2017-11-11T12:38:46.650Z,4.13
2017-11-11T12:41:14.848Z,4.60
2017-11-11T12:43:43.092Z,4.77
2017-11-11T12:46:11.278Z,4.53
2017-11-11T12:48:39.290Z,4.30
2017-11-11T12:51:06.703Z,4.97
2017-11-11T12:53:35.177Z,4.83
2017-11-11T12:56:02.583Z,5.20
2017-11-11T12:58:30.000Z,4.73
2017-11-11T13:00:58.341Z,5.20
2017-11-11T13:03:25.761Z,4.40
2017-11-11T13:05:53.472Z,5.60
2017-11-11T13:08:20.873Z,5.53
2017-11-11T13:10:48.305Z,5.20
2017-11-11T13:13:17.027Z,5.73
2017-11-11T13:15:44.440Z,5.07
2017-11-11T13:18:12.642Z,4.60
2017-11-11T13:20:40.053Z,4.90
2017-11-11T13:23:07.806Z,5.47
2017-11-11T13:25:35.238Z,5.20
2017-11-11T13:28:02.649Z,6.40
2017-11-11T13:30:30.848Z,5.97
2017-11-11T13:32:58.273Z,6.30
2017-11-11T13:35:26.471Z,6.37
2017-11-11T13:37:53.912Z,7.17
2017-11-11T13:40:22.107Z,7.20
2017-11-11T13:42:49.529Z,8.10
2017-11-11T13:45:17.716Z,8.07
2017-11-11T13:47:45.917Z,8.23
2017-11-11T13:50:13.362Z,7.50
2017-11-11T13:52:41.546Z,8.40
2017-11-11T13:55:09.853Z,7.33
2017-11-11T13:57:37.622Z,8.27
2017-11-11T14:00:10.760Z,7.33
2017-11-11T14:02:38.200Z,7.33
2017-11-11T14:05:05.673Z,7.27
2017-11-11T14:07:33.888Z,7.20
2017-11-11T14:10:01.334Z,7.27
2017-11-11T14:12:28.781Z,7.90
2017-11-11T14:14:56.224Z,7.47
2017-11-11T14:17:24.461Z,7.10
2017-11-11T14:19:51.945Z,6.70
2017-11-11T14:22:22.179Z,7.40
2017-11-11T14:24:50.395Z,8.20
2017-11-11T14:27:18.811Z,7.73
2017-11-11T14:29:46.241Z,7.57
2017-11-11T14:32:13.672Z,8.47
2017-11-11T14:34:41.332Z,7.17
2017-11-11T14:37:08.750Z,7.57
2017-11-11T14:39:36.949Z,7.53
2017-11-11T14:42:04.534Z,7.13
2017-11-11T14:44:31.966Z,6.87
2017-11-11T14:46:59.386Z,6.73
2017-11-11T14:49:26.821Z,6.63
2017-11-11T14:51:54.449Z,6.87
2017-11-11T14:54:21.957Z,6.27
2017-11-11T14:56:50.353Z,5.97
2017-11-11T14:59:18.546Z,6.13
2017-11-11T15:01:45.965Z,5.93
2017-11-11T15:04:18.503Z,6.30
2017-11-11T15:06:45.933Z,6.17
2017-11-11T15:09:15.311Z,6.30
2017-11-11T15:11:45.738Z,5.30
2017-11-11T15:14:13.164Z,5.60
2017-11-11T15:16:41.134Z,5.13
2017-11-11T15:19:08.573Z,5.00
2017-11-11T15:21:36.002Z,5.07
2017-11-11T15:24:03.439Z,4.50
2017-11-11T15:26:31.622Z,3.77
2017-11-11T15:28:59.814Z,5.00
2017-11-11T15:31:27.234Z,4.17
2017-11-11T15:33:54.670Z,5.03
2017-11-11T15:36:22.086Z,5.03
2017-11-11T15:38:49.511Z,4.47
2017-11-11T15:41:16.934Z,4.67
2017-11-11T15:43:44.361Z,4.93
2017-11-11T15:46:11.776Z,5.13
2017-11-11T15:48:39.229Z,5.60
2017-11-11T15:51:06.660Z,5.00
2017-11-11T15:53:34.665Z,4.57
2017-11-11T15:56:02.516Z,5.00
2017-11-11T15:58:30.512Z,6.83
2017-11-11T16:00:58.705Z,7.03
2017-11-11T16:03:26.124Z,8.30
2017-11-11T16:05:53.557Z,8.07
2017-11-11T16:08:20.986Z,7.27
2017-11-11T16:10:49.713Z,6.73
2017-11-11T16:13:17.400Z,6.77
2017-11-11T16:15:44.822Z,7.93
2017-11-11T16:18:12.252Z,7.60
2017-11-11T16:20:39.689Z,7.47
2017-11-11T16:23:07.105Z,7.67
2017-11-11T16:25:34.906Z,8.87
2017-11-11T16:28:04.081Z,11.23
2017-11-11T16:30:32.689Z,11.07
2017-11-11T16:33:01.767Z,12.50
2017-11-11T16:35:33.613Z,12.97
2017-11-11T16:38:01.045Z,13.67
2017-11-11T16:40:28.906Z,14.50
2017-11-11T16:42:56.343Z,14.80
2017-11-11T16:45:23.782Z,14.87
2017-11-11T16:47:52.494Z,16.50
2017-11-11T16:50:19.920Z,14.33
2017-11-11T16:52:47.349Z,14.80
2017-11-11T16:55:14.790Z,13.27
2017-11-11T16:57:42.636Z,20.07
2017-11-11T17:00:10.506Z,16.33
2017-11-11T17:02:37.935Z,15.67
2017-11-11T17:05:06.113Z,13.63
2017-11-11T17:07:34.081Z,14.93
2017-11-11T17:10:01.631Z,15.27
2017-11-11T17:12:29.061Z,11.43
2017-11-11T17:14:56.498Z,17.07
2017-11-11T17:17:23.931Z,20.97
2017-11-11T17:19:51.361Z,25.87
2017-11-11T17:22:18.786Z,25.93
2017-11-11T17:24:47.158Z,25.23
2017-11-11T17:27:15.306Z,22.53
2017-11-11T17:29:42.733Z,15.70
2017-11-11T17:32:10.153Z,14.43
2017-11-11T17:34:38.308Z,13.23
2017-11-11T17:37:05.896Z,11.60
2017-11-11T17:39:34.292Z,13.30
2017-11-11T17:42:01.844Z,11.97
2017-11-11T17:44:31.418Z,11.50
2017-11-11T17:46:59.001Z,10.53
2017-11-11T17:49:27.374Z,9.50
2017-11-11T17:51:54.996Z,10.10
2017-11-11T17:54:22.618Z,11.20
2017-11-11T17:56:50.280Z,10.90
2017-11-11T17:59:18.537Z,10.30
2017-11-11T18:01:46.926Z,9.50
2017-11-11T18:04:15.261Z,8.90
2017-11-11T18:06:42.712Z,8.30
2017-11-11T18:09:10.152Z,7.20
2017-11-11T18:11:37.565Z,6.50
2017-11-11T18:14:05.802Z,6.10
2017-11-11T18:16:33.229Z,6.93
2017-11-11T18:19:02.362Z,6.93
2017-11-11T18:21:29.784Z,5.67
2017-11-11T18:23:57.271Z,5.60
2017-11-11T18:26:24.902Z,5.13
2017-11-11T18:28:53.337Z,5.70
2017-11-11T18:31:20.789Z,4.30
2017-11-11T18:33:48.200Z,3.67
2017-11-11T18:36:15.633Z,4.13
2017-11-11T18:38:50.748Z,3.27
2017-11-11T18:41:18.603Z,3.30
2017-11-11T18:43:46.071Z,5.23
2017-11-11T18:46:13.614Z,4.90
2017-11-11T18:48:41.041Z,3.93
2017-11-11T18:51:08.476Z,5.33
2017-11-11T18:53:35.902Z,6.43
2017-11-11T18:56:03.326Z,5.70
2017-11-11T18:58:30.739Z,6.60
2017-11-11T19:00:59.617Z,9.20
2017-11-11T19:03:28.350Z,6.93
2017-11-11T19:05:56.178Z,5.97
2017-11-11T19:08:24.358Z,5.50
2017-11-11T19:10:52.229Z,6.60
2017-11-11T19:13:19.647Z,5.80
2017-11-11T19:15:47.610Z,7.03
2017-11-11T19:18:15.068Z,5.40
2017-11-11T19:20:42.496Z,7.37
2017-11-11T19:23:10.197Z,8.97
2017-11-11T19:25:39.548Z,9.50
2017-11-11T19:28:07.758Z,8.93
2017-11-11T19:30:35.593Z,7.73
2017-11-11T19:33:03.336Z,11.20
2017-11-11T19:35:30.772Z,11.57
2017-11-11T19:37:58.960Z,7.53
2017-11-11T19:40:27.426Z,5.73
2017-11-11T19:42:54.830Z,4.87
2017-11-11T19:45:22.261Z,5.00
2017-11-11T19:47:49.672Z,4.93
2017-11-11T19:50:17.529Z,3.80
2017-11-11T19:52:44.973Z,3.90
2017-11-11T19:55:12.417Z,4.17
2017-11-11T19:57:39.846Z,3.83
2017-11-11T20:00:08.533Z,4.27
2017-11-11T20:02:35.941Z,5.03
2017-11-11T20:05:03.384Z,5.03
2017-11-11T20:07:31.366Z,5.20
2017-11-11T20:09:58.811Z,4.93
2017-11-11T20:12:27.004Z,5.07
2017-11-11T20:14:54.629Z,5.77
2017-11-11T20:17:22.040Z,6.60
2017-11-11T20:19:49.460Z,6.50
2017-11-11T20:22:17.874Z,7.33
2017-11-11T20:24:45.858Z,6.60
2017-11-11T20:27:13.966Z,8.97
2017-11-11T20:29:41.402Z,9.00
2017-11-11T20:32:12.326Z,9.10
2017-11-11T20:34:40.533Z,8.37
2017-11-11T20:37:08.429Z,7.23
2017-11-11T20:39:35.863Z,8.17
2017-11-11T20:42:03.310Z,6.60
2017-11-11T20:44:30.754Z,5.27
2017-11-11T20:46:58.962Z,5.53
2017-11-11T20:49:26.401Z,5.80
2017-11-11T20:51:53.838Z,5.63
2017-11-11T20:54:22.143Z,4.33
2017-11-11T20:56:49.596Z,5.03
2017-11-11T20:59:17.033Z,5.90
2017-11-11T21:01:45.215Z,5.63
2017-11-11T21:04:12.667Z,5.93
2017-11-11T21:06:40.859Z,5.57
2017-11-11T21:09:08.505Z,5.57
2017-11-11T21:11:35.966Z,5.67
2017-11-11T21:14:03.406Z,7.87
2017-11-11T21:16:32.544Z,5.40
2017-11-11T21:18:59.962Z,6.33
2017-11-11T21:21:27.427Z,6.67
2017-11-11T21:23:54.860Z,5.97
2017-11-11T21:26:23.061Z,7.70
2017-11-11T21:28:51.399Z,10.73
2017-11-11T21:31:22.062Z,10.60
2017-11-11T21:33:51.443Z,17.83
2017-11-11T21:36:18.892Z,28.53
2017-11-11T21:38:46.317Z,24.13
2017-11-11T21:41:13.759Z,19.00
2017-11-11T21:43:41.198Z,18.87
2017-11-11T21:46:08.931Z,17.93
2017-11-11T21:48:36.353Z,15.97
2017-11-11T21:51:03.778Z,14.90
2017-11-11T21:53:31.226Z,16.77
2017-11-11T21:55:59.324Z,14.50
2017-11-11T21:58:26.757Z,14.73
2017-11-11T22:00:54.182Z,13.37
2017-11-11T22:03:21.625Z,12.47
2017-11-11T22:05:49.052Z,13.07
2017-11-11T22:08:16.485Z,13.07
2017-11-11T22:10:44.211Z,14.93
2017-11-11T22:13:11.634Z,13.83
2017-11-11T22:15:39.070Z,13.77
2017-11-11T22:18:06.495Z,14.80
2017-11-11T22:23:07.514Z,14.97
2017-11-11T22:25:35.513Z,13.13
2017-11-11T22:28:03.776Z,11.83
2017-11-11T22:30:31.614Z,10.97
2017-11-11T22:32:59.045Z,12.47
2017-11-11T22:35:26.480Z,11.13
2017-11-11T22:37:54.674Z,9.33
2017-11-11T22:40:22.820Z,8.97
2017-11-11T22:42:50.249Z,10.70
2017-11-11T22:45:17.679Z,12.33
2017-11-11T22:47:45.246Z,12.00
2017-11-11T22:50:12.670Z,9.73
2017-11-11T22:52:43.694Z,10.40
2017-11-11T22:55:11.145Z,14.27
2017-11-11T22:57:38.571Z,16.77
2017-11-11T23:00:06.008Z,14.37
2017-11-11T23:02:33.433Z,19.67
2017-11-11T23:05:01.639Z,37.80
2017-11-11T23:07:29.588Z,36.23
2017-11-11T23:09:57.024Z,44.33
2017-11-11T23:12:26.066Z,34.23
2017-11-11T23:14:53.516Z,22.30
2017-11-11T23:17:21.366Z,19.33
2017-11-11T23:19:49.563Z,17.13
2017-11-11T23:22:17.407Z,17.60
2017-11-11T23:24:45.729Z,21.47
2017-11-11T23:27:13.794Z,21.70
2017-11-11T23:29:41.444Z,24.57
2017-11-11T23:32:08.890Z,18.87
2017-11-11T23:34:36.717Z,20.90
2017-11-11T23:37:05.550Z,19.03
2017-11-11T23:39:32.991Z,15.10
2017-11-11T23:42:00.432Z,14.67
2017-11-11T23:44:28.628Z,14.27
2017-11-11T23:46:56.088Z,13.20
2017-11-11T23:49:23.494Z,14.60
2017-11-11T23:51:51.157Z,12.43
2017-11-11T23:54:18.572Z,14.80
2017-11-11T23:56:46.028Z,17.40
2017-11-11T23:59:13.449Z,18.03
